createdAt,value
2023-01-09T00:01:31.702Z,19.23
2023-01-09T00:03:59.866Z,16.58
2023-01-09T00:06:27.798Z,16.17
2023-01-09T00:08:55.624Z,16.40
2023-01-09T00:11:23.741Z,20.65
2023-01-09T00:13:51.502Z,19.23
2023-01-09T00:16:19.561Z,18.23
2023-01-09T00:18:48.886Z,15.05
2023-01-09T00:21:17.499Z,18.40
2023-01-09T00:23:45.261Z,18.45
2023-01-09T00:26:14.912Z,15.65
2023-01-09T00:28:42.891Z,16.13
2023-01-09T00:31:11.691Z,16.77
2023-01-09T00:33:42.318Z,18.13
2023-01-09T00:36:12.751Z,22.85
2023-01-09T00:38:41.210Z,18.00
2023-01-09T00:41:14.207Z,17.15
2023-01-09T00:43:46.235Z,14.95
2023-01-09T00:46:16.116Z,11.73
2023-01-09T00:48:47.683Z,17.27
2023-01-09T00:51:18.229Z,15.70
2023-01-09T00:53:46.324Z,15.65
2023-01-09T00:56:17.905Z,9.23
2023-01-09T00:58:46.612Z,4.97
2023-01-09T01:01:14.529Z,5.47
2023-01-09T01:03:42.616Z,3.25
2023-01-09T01:06:28.121Z,1.88
2023-01-09T01:08:57.357Z,1.33
2023-01-09T01:11:25.533Z,1.60
2023-01-09T01:13:53.689Z,1.98
2023-01-09T01:16:21.655Z,1.65
2023-01-09T01:18:50.501Z,1.77
2023-01-09T01:21:19.103Z,2.50
2023-01-09T01:23:46.827Z,1.25
2023-01-09T01:26:17.712Z,2.20
2023-01-09T01:28:45.564Z,2.30
2023-01-09T01:31:17.824Z,1.48
2023-01-09T01:33:45.664Z,4.15
2023-01-09T01:36:18.022Z,1.58
2023-01-09T01:38:47.420Z,4.30
2023-01-09T01:41:29.621Z,3.60
2023-01-09T01:43:59.202Z,2.90
2023-01-09T01:46:27.418Z,2.63
2023-01-09T01:49:00.749Z,3.65
2023-01-09T01:51:32.019Z,2.15
2023-01-09T01:54:04.642Z,2.03
2023-01-09T01:56:38.853Z,3.47
2023-01-09T01:59:13.142Z,6.20
2023-01-09T02:01:43.881Z,1.35
2023-01-09T02:04:12.798Z,2.47
2023-01-09T02:06:42.136Z,2.20
2023-01-09T02:09:10.341Z,2.75
2023-01-09T02:11:45.588Z,3.50
2023-01-09T02:14:13.822Z,2.88
2023-01-09T02:16:56.150Z,2.03
2023-01-09T02:19:54.926Z,1.88
2023-01-09T02:22:36.981Z,2.60
2023-01-09T02:25:44.606Z,1.60
2023-01-09T02:28:45.968Z,3.05
2023-01-09T02:31:22.986Z,4.07
2023-01-09T02:34:00.863Z,2.22
2023-01-09T02:36:35.454Z,1.67
2023-01-09T02:39:17.314Z,2.65
2023-01-09T02:41:54.471Z,3.80
2023-01-09T02:44:23.805Z,1.30
2023-01-09T02:47:03.579Z,1.88
2023-01-09T02:49:32.887Z,3.95
2023-01-09T02:52:22.224Z,3.08
2023-01-09T02:55:02.152Z,3.80
2023-01-09T02:57:43.896Z,2.20
2023-01-09T03:00:23.366Z,2.57
2023-01-09T03:02:57.758Z,2.97
2023-01-09T03:05:32.074Z,2.15
2023-01-09T03:08:04.349Z,2.15
2023-01-09T03:10:37.357Z,2.80
2023-01-09T03:13:06.899Z,3.05
2023-01-09T03:15:38.654Z,1.95
2023-01-09T03:18:11.879Z,2.60
2023-01-09T03:20:40.466Z,3.08
2023-01-09T03:23:09.236Z,2.60
2023-01-09T03:25:37.185Z,3.38
2023-01-09T03:28:07.889Z,3.00
2023-01-09T03:30:37.807Z,2.08
2023-01-09T03:33:07.330Z,4.38
2023-01-09T03:35:35.139Z,4.38
2023-01-09T03:38:02.866Z,4.80
2023-01-09T03:40:30.777Z,5.45
2023-01-09T03:42:58.644Z,4.97
2023-01-09T03:45:26.496Z,7.55
2023-01-09T03:47:54.250Z,5.93
2023-01-09T03:50:24.368Z,3.65
2023-01-09T03:52:52.381Z,4.38
2023-01-09T03:55:20.188Z,3.53
2023-01-09T03:57:47.899Z,8.18
2023-01-09T04:00:16.283Z,4.82
2023-01-09T04:02:44.053Z,6.82
2023-01-09T04:05:12.561Z,4.68
2023-01-09T04:07:43.942Z,6.03
2023-01-09T04:10:12.549Z,4.93
2023-01-09T04:12:40.345Z,5.15
2023-01-09T04:15:08.917Z,6.80
2023-01-09T04:17:36.770Z,7.95
2023-01-09T04:20:05.651Z,4.60
2023-01-09T04:22:33.498Z,4.25
2023-01-09T04:25:03.324Z,5.18
2023-01-09T04:27:31.294Z,5.05
2023-01-09T04:29:59.035Z,7.88
2023-01-09T04:32:27.730Z,7.57
2023-01-09T04:34:55.665Z,7.43
2023-01-09T04:37:24.824Z,7.93
2023-01-09T04:39:54.847Z,10.82
2023-01-09T04:42:24.858Z,8.25
2023-01-09T04:44:54.123Z,11.40
2023-01-09T04:47:22.182Z,9.75
2023-01-09T04:49:50.170Z,6.93
2023-01-09T04:52:18.337Z,10.43
2023-01-09T04:54:46.144Z,7.38
2023-01-09T04:57:14.030Z,7.07
2023-01-09T04:59:43.242Z,7.03
2023-01-09T05:02:11.952Z,9.15
2023-01-09T05:04:39.918Z,10.45
2023-01-09T05:07:07.772Z,9.73
2023-01-09T05:09:36.200Z,11.93
2023-01-09T05:12:04.930Z,15.48
2023-01-09T05:14:32.858Z,11.73
2023-01-09T05:17:02.107Z,12.90
2023-01-09T05:19:29.986Z,10.57
2023-01-09T05:21:57.734Z,8.57
2023-01-09T05:24:25.542Z,8.13
2023-01-09T05:26:53.335Z,20.95
2023-01-09T05:29:21.134Z,8.63
2023-01-09T05:31:48.947Z,10.05
2023-01-09T05:34:18.113Z,10.45
2023-01-09T05:36:47.160Z,9.98
2023-01-09T05:39:15.113Z,9.00
2023-01-09T05:41:43.002Z,7.75
2023-01-09T05:44:11.020Z,9.90
2023-01-09T05:46:38.852Z,12.70
2023-01-09T05:49:06.782Z,11.63
2023-01-09T05:51:36.155Z,13.55
2023-01-09T05:54:05.435Z,11.05
2023-01-09T05:56:33.317Z,12.85
2023-01-09T05:59:01.092Z,10.57
2023-01-09T06:01:28.954Z,17.35
2023-01-09T06:03:56.882Z,12.25
2023-01-09T06:06:24.718Z,13.38
2023-01-09T06:08:54.684Z,9.95
2023-01-09T06:11:22.663Z,14.98
2023-01-09T06:13:50.513Z,14.23
2023-01-09T06:16:18.353Z,15.38
2023-01-09T06:18:46.351Z,18.38
2023-01-09T06:21:14.302Z,13.32
2023-01-09T06:23:42.372Z,17.05
2023-01-09T06:26:11.626Z,14.63
2023-01-09T06:28:39.603Z,14.57
2023-01-09T06:31:07.475Z,13.30
2023-01-09T06:33:35.488Z,14.02
2023-01-09T06:36:03.480Z,17.60
2023-01-09T06:38:31.278Z,15.55
2023-01-09T06:40:59.097Z,14.98
2023-01-09T06:43:28.257Z,14.13
2023-01-09T06:45:56.334Z,14.80
2023-01-09T06:48:25.063Z,13.05
2023-01-09T06:50:52.891Z,19.27
2023-01-09T06:53:21.486Z,16.10
2023-01-09T06:55:49.445Z,14.75
2023-01-09T06:58:20.442Z,19.27
2023-01-09T07:00:53.867Z,19.98
2023-01-09T07:03:22.572Z,16.83
2023-01-09T07:05:50.920Z,15.63
2023-01-09T07:08:19.072Z,13.25
2023-01-09T07:10:47.007Z,15.25
2023-01-09T07:13:14.987Z,21.70
2023-01-09T07:15:43.150Z,22.42
2023-01-09T07:18:12.960Z,18.20
2023-01-09T07:20:41.803Z,19.27
2023-01-09T07:23:12.611Z,16.55
2023-01-09T07:25:40.956Z,18.30
2023-01-09T07:28:08.915Z,17.45
2023-01-09T07:30:37.261Z,15.88
2023-01-09T07:33:05.508Z,20.27
2023-01-09T07:35:38.303Z,20.58
2023-01-09T07:38:06.387Z,17.77
2023-01-09T07:40:35.082Z,16.52
2023-01-09T07:43:03.018Z,16.55
2023-01-09T07:45:31.008Z,15.35
2023-01-09T07:47:58.862Z,15.05
2023-01-09T07:50:27.139Z,16.60
2023-01-09T07:52:56.507Z,18.77
2023-01-09T07:55:24.438Z,19.58
2023-01-09T07:57:53.273Z,25.88
2023-01-09T08:00:24.877Z,30.60
2023-01-09T08:02:53.756Z,23.47
2023-01-09T08:05:22.682Z,14.75
2023-01-09T08:07:51.590Z,27.85
2023-01-09T08:10:21.747Z,25.50
2023-01-09T08:12:50.363Z,17.63
2023-01-09T08:15:18.694Z,20.13
2023-01-09T08:17:47.453Z,16.85
2023-01-09T08:20:18.357Z,17.98
2023-01-09T08:22:50.872Z,16.95
2023-01-09T08:27:48.659Z,19.70
2023-01-09T08:30:17.259Z,17.73
2023-01-09T08:32:49.946Z,18.65
2023-01-09T08:35:18.245Z,20.02
2023-01-09T08:37:46.295Z,19.88
2023-01-09T08:40:15.431Z,18.25
2023-01-09T08:43:02.222Z,18.67
2023-01-09T08:45:48.195Z,14.60
2023-01-09T08:48:16.930Z,16.30
2023-01-09T08:50:45.689Z,15.43
2023-01-09T08:53:16.073Z,12.63
2023-01-09T08:55:44.314Z,10.75
2023-01-09T08:58:14.381Z,16.85
2023-01-09T09:00:42.485Z,11.68
2023-01-09T09:03:11.172Z,10.80
2023-01-09T09:05:39.236Z,11.32
2023-01-09T09:08:10.190Z,12.52
2023-01-09T09:10:38.022Z,13.18
2023-01-09T09:13:06.338Z,10.23
2023-01-09T09:15:38.652Z,10.40
2023-01-09T09:18:09.623Z,10.70
2023-01-09T09:20:39.913Z,13.35
2023-01-09T09:23:08.985Z,11.00
2023-01-09T09:25:38.651Z,10.18
2023-01-09T09:28:07.374Z,12.15
2023-01-09T09:30:37.036Z,13.30
2023-01-09T09:33:05.866Z,10.80
2023-01-09T09:35:34.471Z,7.57
2023-01-09T09:38:05.479Z,12.95
2023-01-09T09:40:48.881Z,9.38
2023-01-09T09:43:56.638Z,6.72
2023-01-09T09:46:37.109Z,4.40
2023-01-09T09:49:12.401Z,6.70
2023-01-09T09:51:56.245Z,5.43
2023-01-09T09:54:31.668Z,10.00
2023-01-09T09:57:03.489Z,9.05
2023-01-09T09:59:37.983Z,7.15
2023-01-09T10:02:25.006Z,7.25
2023-01-09T10:04:59.918Z,5.88
2023-01-09T10:07:32.381Z,11.50
2023-01-09T10:12:38.462Z,7.88
2023-01-09T10:15:17.827Z,6.45
2023-01-09T10:17:59.107Z,7.53
2023-01-09T10:20:44.207Z,6.72
2023-01-09T10:23:26.429Z,6.85
2023-01-09T10:26:00.916Z,6.32
2023-01-09T10:28:56.011Z,6.32
2023-01-09T10:31:33.777Z,6.25
2023-01-09T10:34:15.699Z,4.93
2023-01-09T10:36:59.327Z,6.40
2023-01-09T10:39:32.754Z,5.95
2023-01-09T10:42:08.656Z,8.13
2023-01-09T10:44:41.735Z,5.28
2023-01-09T10:47:23.631Z,5.88
2023-01-09T10:49:55.504Z,6.03
2023-01-09T10:52:31.352Z,5.30
2023-01-09T10:55:19.596Z,4.88
2023-01-09T10:58:02.240Z,5.35
2023-01-09T11:02:58.662Z,5.55
2023-01-09T11:05:32.727Z,5.25
2023-01-09T11:08:06.631Z,6.35
2023-01-09T11:10:48.426Z,5.93
2023-01-09T11:13:22.260Z,7.00
2023-01-09T11:16:04.459Z,6.35
2023-01-09T11:18:33.874Z,3.95
2023-01-09T11:21:27.060Z,6.60
2023-01-09T11:23:55.138Z,4.55
2023-01-09T11:26:25.513Z,7.05
2023-01-09T11:29:07.659Z,6.88
2023-01-09T11:31:35.971Z,4.38
2023-01-09T11:34:04.072Z,5.63
2023-01-09T11:36:34.224Z,8.65
2023-01-09T11:39:03.202Z,3.80
2023-01-09T11:41:35.102Z,5.03
2023-01-09T11:44:06.425Z,6.05
2023-01-09T11:46:38.431Z,5.93
2023-01-09T11:49:20.919Z,5.28
2023-01-09T11:52:12.915Z,4.32
2023-01-09T11:54:47.479Z,4.33
2023-01-09T11:57:16.962Z,3.97
2023-01-09T11:59:45.630Z,3.75
2023-01-09T12:02:31.824Z,4.53
2023-01-09T12:05:11.409Z,4.65
2023-01-09T12:07:56.509Z,9.10
2023-01-09T12:10:47.554Z,4.03
2023-01-09T12:13:31.712Z,3.53
2023-01-09T12:16:09.802Z,7.68
2023-01-09T12:18:49.991Z,7.25
2023-01-09T12:21:33.713Z,8.18
2023-01-09T12:24:31.584Z,5.43
2023-01-09T12:27:09.781Z,6.18
2023-01-09T12:29:57.250Z,4.32
2023-01-09T12:32:47.370Z,3.55
2023-01-09T12:35:31.576Z,5.70
2023-01-09T12:38:21.927Z,5.70
2023-01-09T12:41:28.396Z,7.20
2023-01-09T12:44:24.270Z,3.75
2023-01-09T12:47:18.613Z,6.13
2023-01-09T12:49:59.700Z,5.95
2023-01-09T12:52:32.466Z,5.05
2023-01-09T12:55:05.263Z,5.38
2023-01-09T12:57:37.006Z,5.82
2023-01-09T13:00:16.099Z,4.68
2023-01-09T13:03:00.396Z,8.85
2023-01-09T13:05:36.769Z,4.78
2023-01-09T13:08:09.967Z,6.50
2023-01-09T13:10:42.471Z,4.75
2023-01-09T13:15:51.347Z,6.65
2023-01-09T13:18:24.611Z,5.55
2023-01-09T13:20:56.690Z,7.43
2023-01-09T13:23:37.377Z,5.35
2023-01-09T13:26:10.455Z,4.32
2023-01-09T13:28:47.233Z,3.97
2023-01-09T13:31:55.167Z,3.47
2023-01-09T13:34:26.080Z,6.78
2023-01-09T13:36:56.616Z,6.40
2023-01-09T13:39:29.121Z,5.53
2023-01-09T13:44:45.520Z,6.07
2023-01-09T13:47:21.451Z,5.53
2023-01-09T13:50:24.192Z,5.47
2023-01-09T13:52:54.639Z,5.00
2023-01-09T13:55:26.871Z,4.30
2023-01-09T13:58:22.786Z,6.57
2023-01-09T14:01:01.653Z,3.13
2023-01-09T14:03:34.108Z,7.45
2023-01-09T14:06:16.657Z,6.25
2023-01-09T14:08:45.812Z,6.10
2023-01-09T14:11:21.334Z,7.25
2023-01-09T14:13:57.954Z,5.80
2023-01-09T14:16:27.653Z,6.15
2023-01-09T14:19:04.225Z,5.75
2023-01-09T14:21:46.803Z,4.60
2023-01-09T14:24:23.472Z,5.57
2023-01-09T14:26:57.096Z,5.25
2023-01-09T14:30:19.771Z,5.57
2023-01-09T14:32:57.882Z,6.10
2023-01-09T14:35:33.713Z,4.93
2023-01-09T14:38:07.644Z,5.22
2023-01-09T14:40:37.289Z,6.40
2023-01-09T14:43:20.526Z,6.78
2023-01-09T14:45:50.604Z,7.25
2023-01-09T14:48:27.885Z,6.70
2023-01-09T14:51:00.058Z,6.10
2023-01-09T14:53:31.893Z,5.93
2023-01-09T14:56:01.094Z,6.63
2023-01-09T14:58:30.366Z,7.53
2023-01-09T15:01:05.200Z,8.00
2023-01-09T15:03:39.437Z,10.95
2023-01-09T15:06:16.551Z,8.60
2023-01-09T15:08:47.115Z,7.90
2023-01-09T15:11:15.481Z,6.40
2023-01-09T15:13:47.922Z,6.85
2023-01-09T15:18:49.929Z,7.75
2023-01-09T15:21:23.127Z,7.53
2023-01-09T15:23:51.378Z,7.63
2023-01-09T15:26:26.789Z,6.63
2023-01-09T15:29:01.333Z,9.88
2023-01-09T15:31:30.282Z,5.93
2023-01-09T15:33:58.888Z,9.93
2023-01-09T15:36:31.099Z,9.95
2023-01-09T15:39:00.959Z,8.18
2023-01-09T15:41:47.899Z,7.45
2023-01-09T15:44:19.540Z,8.77
2023-01-09T15:46:50.551Z,6.50
2023-01-09T15:49:21.489Z,15.57
2023-01-09T15:51:53.805Z,11.82
2023-01-09T15:54:30.250Z,12.65
2023-01-09T15:57:34.119Z,9.23
2023-01-09T16:00:32.171Z,8.55
2023-01-09T16:03:13.548Z,7.95
2023-01-09T16:05:42.342Z,8.23
2023-01-09T16:08:25.979Z,10.20
2023-01-09T16:10:57.343Z,8.98
2023-01-09T16:13:28.512Z,7.13
2023-01-09T16:15:59.091Z,7.60
2023-01-09T16:18:33.622Z,9.73
2023-01-09T16:21:08.562Z,10.25
2023-01-09T16:23:39.601Z,12.57
2023-01-09T16:26:12.904Z,10.07
2023-01-09T16:28:42.849Z,7.43
2023-01-09T16:31:23.853Z,9.98
2023-01-09T16:33:58.512Z,7.47
2023-01-09T16:36:28.404Z,10.77
2023-01-09T16:39:00.901Z,13.50
2023-01-09T16:44:13.844Z,10.25
2023-01-09T16:46:44.265Z,12.65
2023-01-09T16:49:20.524Z,11.27
2023-01-09T16:51:49.903Z,11.18
2023-01-09T16:54:19.459Z,10.35
2023-01-09T16:56:50.296Z,10.88
2023-01-09T16:59:26.950Z,13.07
2023-01-09T17:01:56.013Z,15.00
2023-01-09T17:04:25.056Z,8.50
2023-01-09T17:06:55.069Z,11.65
2023-01-09T17:09:27.802Z,12.82
2023-01-09T17:11:55.958Z,9.25
2023-01-09T17:14:24.618Z,7.25
2023-01-09T17:16:53.245Z,7.00
2023-01-09T17:19:25.638Z,8.35
2023-01-09T17:21:56.095Z,9.95
2023-01-09T17:24:43.551Z,7.93
2023-01-09T17:27:32.067Z,6.75
2023-01-09T17:30:00.796Z,6.90
2023-01-09T17:32:32.089Z,6.53
2023-01-09T17:35:10.573Z,6.35
2023-01-09T17:37:40.718Z,6.00
2023-01-09T17:40:23.242Z,6.40
2023-01-09T17:42:51.444Z,6.05
2023-01-09T17:45:19.844Z,6.55
2023-01-09T17:47:49.319Z,5.80
2023-01-09T17:50:20.217Z,6.13
2023-01-09T17:52:52.403Z,4.80
2023-01-09T17:55:22.510Z,7.05
2023-01-09T17:57:50.400Z,6.13
2023-01-09T18:00:29.587Z,5.13
2023-01-09T18:02:58.139Z,5.55
2023-01-09T18:05:27.773Z,7.65
2023-01-09T18:07:56.079Z,9.77
2023-01-09T18:10:30.912Z,8.38
2023-01-09T18:13:01.272Z,9.48
2023-01-09T18:15:29.685Z,15.90
2023-01-09T18:18:03.759Z,17.70
2023-01-09T18:20:32.055Z,17.90
2023-01-09T18:23:04.881Z,15.32
2023-01-09T18:28:43.727Z,15.27
2023-01-09T18:31:13.412Z,10.48
2023-01-09T18:33:41.412Z,11.25
2023-01-09T18:36:11.067Z,10.80
2023-01-09T18:38:39.219Z,7.60
2023-01-09T18:41:07.497Z,9.60
2023-01-09T18:43:35.385Z,9.90
2023-01-09T18:46:08.841Z,16.90
2023-01-09T18:48:37.151Z,17.38
2023-01-09T18:51:07.162Z,16.05
2023-01-09T18:53:35.519Z,19.10
2023-01-09T18:56:05.185Z,19.58
2023-01-09T18:58:34.710Z,23.70
2023-01-09T19:01:03.058Z,14.93
2023-01-09T19:03:32.836Z,16.63
2023-01-09T19:06:01.637Z,16.50
2023-01-09T19:08:30.365Z,15.95
2023-01-09T19:10:59.845Z,13.43
2023-01-09T19:13:31.203Z,16.52
2023-01-09T19:15:59.794Z,16.13
2023-01-09T19:18:29.402Z,15.70
2023-01-09T19:20:59.357Z,14.23
2023-01-09T19:23:27.403Z,12.40
2023-01-09T19:25:57.676Z,12.80
2023-01-09T19:28:25.527Z,16.27
2023-01-09T19:30:57.938Z,15.60
2023-01-09T19:33:26.357Z,14.45
2023-01-09T19:35:54.804Z,14.05
2023-01-09T19:38:24.351Z,13.40
2023-01-09T19:40:52.219Z,14.98
2023-01-09T19:43:26.712Z,12.13
2023-01-09T19:45:55.270Z,13.23
2023-01-09T19:48:24.528Z,21.85
2023-01-09T19:50:52.556Z,17.52
2023-01-09T19:53:20.352Z,16.90
2023-01-09T19:55:50.230Z,12.60
2023-01-09T19:58:18.186Z,15.90
2023-01-09T20:00:46.071Z,17.55
2023-01-09T20:03:13.979Z,11.85
2023-01-09T20:05:41.843Z,11.52
2023-01-09T20:08:11.732Z,11.43
2023-01-09T20:10:40.009Z,13.82
2023-01-09T20:13:09.588Z,13.48
2023-01-09T20:15:38.939Z,12.63
2023-01-09T20:18:07.872Z,13.32
2023-01-09T20:20:36.191Z,14.90
2023-01-09T20:23:03.954Z,12.85
2023-01-09T20:25:31.783Z,9.30
2023-01-09T20:27:59.766Z,12.30
2023-01-09T20:30:29.066Z,12.82
2023-01-09T20:32:58.749Z,11.52
2023-01-09T20:35:28.110Z,11.02
2023-01-09T20:37:56.019Z,9.35
2023-01-09T20:40:24.115Z,10.73
2023-01-09T20:42:52.662Z,12.60
2023-01-09T20:45:20.876Z,11.57
2023-01-09T20:47:52.676Z,12.27
2023-01-09T20:50:20.624Z,11.95
2023-01-09T20:52:48.737Z,14.13
2023-01-09T20:55:16.907Z,13.00
2023-01-09T20:57:44.827Z,14.95
2023-01-09T21:00:13.887Z,11.73
2023-01-09T21:02:41.716Z,12.48
2023-01-09T21:05:11.427Z,13.75
2023-01-09T21:07:39.289Z,13.27
2023-01-09T21:10:08.286Z,14.90
2023-01-09T21:12:36.139Z,14.65
2023-01-09T21:15:06.505Z,14.48
2023-01-09T21:17:35.093Z,15.88
2023-01-09T21:20:03.296Z,18.23
2023-01-09T21:22:34.704Z,13.80
2023-01-09T21:25:02.792Z,13.30
2023-01-09T21:27:32.699Z,12.88
2023-01-09T21:30:00.686Z,17.08
2023-01-09T21:32:28.654Z,11.40
2023-01-09T21:35:00.643Z,13.07
2023-01-09T21:37:30.809Z,15.15
2023-01-09T21:40:00.205Z,17.67
2023-01-09T21:42:44.398Z,13.85
2023-01-09T21:45:35.206Z,11.63
2023-01-09T21:48:03.775Z,12.68
2023-01-09T21:50:31.807Z,11.32
2023-01-09T21:53:00.276Z,12.95
2023-01-09T21:55:32.574Z,13.55
2023-01-09T21:58:02.226Z,12.80
2023-01-09T22:00:30.601Z,10.98
2023-01-09T22:02:58.996Z,11.60
2023-01-09T22:05:27.321Z,9.70
2023-01-09T22:07:56.581Z,9.60
2023-01-09T22:10:24.509Z,9.80
2023-01-09T22:13:11.376Z,10.63
2023-01-09T22:15:39.313Z,9.30
2023-01-09T22:18:07.265Z,8.63
2023-01-09T22:20:35.056Z,11.05
2023-01-09T22:23:05.068Z,10.68
2023-01-09T22:25:32.914Z,12.55
2023-01-09T22:28:02.214Z,9.50
2023-01-09T22:30:30.017Z,13.77
2023-01-09T22:32:57.857Z,11.18
2023-01-09T22:35:25.779Z,10.30
2023-01-09T22:37:53.942Z,13.40
2023-01-09T22:40:22.055Z,9.48
2023-01-09T22:42:52.869Z,12.73
2023-01-09T22:45:22.229Z,9.30
2023-01-09T22:47:50.059Z,12.10
2023-01-09T22:50:18.482Z,9.18
2023-01-09T22:52:48.526Z,12.18
2023-01-09T22:55:16.401Z,12.13
2023-01-09T22:57:44.379Z,11.48
2023-01-09T23:00:13.248Z,14.68
2023-01-09T23:02:42.569Z,12.07
2023-01-09T23:05:10.903Z,13.23
2023-01-09T23:07:38.669Z,12.52
2023-01-09T23:10:07.751Z,13.48
2023-01-09T23:12:35.516Z,15.68
2023-01-09T23:15:03.363Z,17.02
2023-01-09T23:17:31.274Z,13.25
2023-01-09T23:20:00.397Z,15.00
2023-01-09T23:22:28.262Z,13.85
2023-01-09T23:24:56.072Z,15.55
2023-01-09T23:27:24.351Z,15.15
2023-01-09T23:29:52.157Z,14.23
2023-01-09T23:32:19.973Z,13.57
2023-01-09T23:34:49.450Z,14.52
2023-01-09T23:37:18.686Z,16.40
2023-01-09T23:39:46.466Z,17.73
2023-01-09T23:42:31.958Z,18.92
2023-01-09T23:44:59.927Z,15.32
2023-01-09T23:47:30.254Z,11.95
2023-01-09T23:49:58.490Z,16.45
2023-01-09T23:52:27.793Z,17.75
2023-01-09T23:54:56.669Z,19.00
2023-01-09T23:57:24.519Z,14.57
2023-01-09T23:59:52.400Z,18.80
